createdAt,value
2018-07-19T00:01:08.321Z,1.00
2018-07-19T00:03:35.798Z,1.00
2018-07-19T00:06:03.314Z,1.00
2018-07-19T00:08:30.748Z,1.00
2018-07-19T00:10:58.905Z,1.00
2018-07-19T00:13:26.366Z,1.00
2018-07-19T00:15:53.765Z,1.00
2018-07-19T00:18:24.571Z,1.00
2018-07-19T00:20:53.747Z,1.00
2018-07-19T00:23:21.202Z,1.00
2018-07-19T00:25:48.601Z,1.00
2018-07-19T00:28:15.993Z,1.00
2018-07-19T00:30:43.382Z,1.00
2018-07-19T00:33:10.781Z,1.00
2018-07-19T00:35:38.148Z,1.00
2018-07-19T00:38:05.558Z,1.00
2018-07-19T00:40:32.912Z,1.00
2018-07-19T00:43:00.443Z,1.00
2018-07-19T00:45:27.843Z,1.00
2018-07-19T00:47:55.244Z,1.00
2018-07-19T00:50:22.677Z,1.00
2018-07-19T00:52:50.075Z,1.00
2018-07-19T00:55:17.459Z,1.00
2018-07-19T00:57:44.873Z,1.00
2018-07-19T01:00:12.299Z,1.00
2018-07-19T01:02:39.699Z,1.00
2018-07-19T01:05:07.160Z,1.00
2018-07-19T01:07:34.588Z,1.00
2018-07-19T01:10:02.013Z,1.00
2018-07-19T01:12:29.404Z,1.00
2018-07-19T01:14:56.818Z,1.00
2018-07-19T01:17:24.229Z,1.00
2018-07-19T01:19:51.659Z,1.00
2018-07-19T01:22:19.501Z,1.00
2018-07-19T01:24:48.212Z,1.00
2018-07-19T01:27:15.610Z,1.00
2018-07-19T01:29:45.295Z,1.00
2018-07-19T01:32:12.687Z,1.00
2018-07-19T01:34:40.092Z,1.00
2018-07-19T01:37:07.567Z,1.00
2018-07-19T01:39:38.091Z,1.00
2018-07-19T01:42:37.939Z,1.00
2018-07-19T01:45:06.618Z,1.00
2018-07-19T01:47:34.054Z,1.00
2018-07-19T01:50:01.533Z,1.00
2018-07-19T01:52:29.032Z,1.00
2018-07-19T01:54:56.489Z,1.00
2018-07-19T01:57:23.895Z,1.00
2018-07-19T01:59:51.301Z,1.40
2018-07-19T02:04:51.769Z,1.00
2018-07-19T02:07:19.193Z,1.00
2018-07-19T02:09:46.611Z,1.00
2018-07-19T02:12:40.647Z,1.00
2018-07-19T02:15:08.261Z,1.00
2018-07-19T02:17:35.872Z,1.00
2018-07-19T02:20:05.970Z,1.00
2018-07-19T02:22:33.522Z,1.00
2018-07-19T02:25:01.056Z,1.00
2018-07-19T02:27:28.945Z,1.00
2018-07-19T02:29:56.622Z,1.00
2018-07-19T02:32:24.297Z,1.30
2018-07-19T02:34:53.255Z,1.10
2018-07-19T02:37:20.868Z,2.30
2018-07-19T02:39:48.599Z,2.90
2018-07-19T02:42:16.221Z,1.70
2018-07-19T02:44:43.818Z,3.40
2018-07-19T02:47:11.549Z,3.80
2018-07-19T02:49:39.159Z,3.20
2018-07-19T02:52:07.129Z,2.50
2018-07-19T02:54:34.725Z,2.40
2018-07-19T02:57:12.809Z,5.30
2018-07-19T03:02:07.983Z,3.30
2018-07-19T03:04:35.904Z,5.90
2018-07-19T03:07:05.755Z,3.40
2018-07-19T03:09:33.289Z,1.10
2018-07-19T03:12:00.851Z,6.00
2018-07-19T03:14:28.411Z,4.20
2018-07-19T03:16:56.016Z,3.20
2018-07-19T03:19:23.837Z,4.00
2018-07-19T03:21:51.390Z,3.40
2018-07-19T03:24:18.942Z,2.40
2018-07-19T03:26:46.531Z,3.60
2018-07-19T03:29:14.166Z,3.00
2018-07-19T03:31:41.762Z,1.50
2018-07-19T03:36:36.950Z,5.80
2018-07-19T03:39:07.021Z,5.50
2018-07-19T03:41:34.560Z,3.60
2018-07-19T03:44:02.270Z,5.80
2018-07-19T03:46:30.656Z,4.60
2018-07-19T03:48:58.222Z,6.20
2018-07-19T03:51:25.923Z,4.80
2018-07-19T03:53:53.531Z,3.50
2018-07-19T03:56:21.155Z,2.60
2018-07-19T03:58:48.711Z,3.20
2018-07-19T04:01:16.409Z,3.30
2018-07-19T04:03:44.160Z,5.30
2018-07-19T04:06:11.699Z,3.80
2018-07-19T04:08:39.314Z,6.50
2018-07-19T04:11:06.904Z,7.30
2018-07-19T04:13:34.505Z,5.80
2018-07-19T04:16:02.151Z,5.20
2018-07-19T04:18:29.861Z,5.70
2018-07-19T04:20:57.462Z,5.70
2018-07-19T04:23:25.041Z,3.50
2018-07-19T04:25:52.642Z,4.70
2018-07-19T04:28:22.120Z,4.50
2018-07-19T04:30:49.705Z,4.20
2018-07-19T04:33:17.302Z,5.70
2018-07-19T04:35:44.981Z,4.70
2018-07-19T04:38:12.660Z,6.00
2018-07-19T04:40:40.366Z,3.70
2018-07-19T04:43:08.313Z,3.80
2018-07-19T04:45:35.945Z,7.60
2018-07-19T04:48:03.617Z,7.30
2018-07-19T04:50:31.210Z,8.70
2018-07-19T04:52:58.933Z,8.70
2018-07-19T04:55:26.543Z,9.40
2018-07-19T04:57:54.110Z,10.80
2018-07-19T05:00:21.781Z,8.00
2018-07-19T05:02:49.392Z,8.30
2018-07-19T05:05:17.029Z,11.60
2018-07-19T05:07:44.585Z,8.70
2018-07-19T05:10:12.138Z,10.60
2018-07-19T05:12:39.698Z,10.60
2018-07-19T05:15:07.329Z,12.30
2018-07-19T05:17:34.954Z,12.90
2018-07-19T05:20:02.586Z,11.70
2018-07-19T05:22:30.230Z,10.80
2018-07-19T05:24:57.802Z,10.80
2018-07-19T05:29:53.146Z,7.40
2018-07-19T05:32:20.758Z,9.50
2018-07-19T05:37:15.905Z,6.50
2018-07-19T05:39:43.541Z,5.70
2018-07-19T05:42:13.084Z,4.70
2018-07-19T05:44:40.619Z,4.30
2018-07-19T05:47:08.190Z,4.20
2018-07-19T05:49:35.752Z,4.20
2018-07-19T05:52:03.363Z,4.10
2018-07-19T05:54:30.914Z,4.20
2018-07-19T05:56:58.711Z,3.00
2018-07-19T05:59:26.378Z,3.20
2018-07-19T06:01:53.970Z,2.30
2018-07-19T06:04:21.622Z,1.90
2018-07-19T06:06:49.198Z,1.00
2018-07-19T06:09:16.809Z,1.00
2018-07-19T06:11:44.440Z,1.00
2018-07-19T06:14:12.042Z,1.00
2018-07-19T06:16:39.722Z,1.00
2018-07-19T06:19:07.383Z,1.00
2018-07-19T06:21:34.980Z,1.00
2018-07-19T06:24:02.627Z,1.00
2018-07-19T06:26:30.253Z,1.00
2018-07-19T06:28:57.911Z,1.00
2018-07-19T06:31:25.529Z,1.00
2018-07-19T06:33:53.142Z,1.00
2018-07-19T06:36:20.788Z,1.00
2018-07-19T06:38:48.382Z,1.00
2018-07-19T06:41:16.174Z,1.00
2018-07-19T06:43:43.722Z,1.00
2018-07-19T06:46:11.382Z,1.00
2018-07-19T06:48:39.121Z,1.00
2018-07-19T06:51:06.847Z,1.00
2018-07-19T06:53:34.431Z,1.00
2018-07-19T06:56:02.089Z,1.00
2018-07-19T06:58:29.735Z,1.00
2018-07-19T07:00:57.305Z,1.00
2018-07-19T07:03:24.954Z,1.00
2018-07-19T07:05:52.506Z,1.00
2018-07-19T07:08:20.057Z,1.00
2018-07-19T07:10:48.073Z,1.00
2018-07-19T07:13:15.739Z,1.00
2018-07-19T07:15:44.929Z,1.00
2018-07-19T07:18:12.499Z,1.00
2018-07-19T07:20:45.567Z,1.00
2018-07-19T07:23:12.914Z,1.00
2018-07-19T07:25:50.352Z,1.00
2018-07-19T07:28:19.491Z,1.00
2018-07-19T07:30:47.102Z,1.00
2018-07-19T07:33:14.982Z,1.00
2018-07-19T07:35:42.851Z,1.00
2018-07-19T07:38:10.429Z,1.00
2018-07-19T07:40:38.054Z,1.00
2018-07-19T07:43:05.833Z,1.00
2018-07-19T07:45:33.467Z,1.00
2018-07-19T07:48:01.014Z,1.00
2018-07-19T07:50:28.549Z,1.00
2018-07-19T07:52:56.184Z,1.00
2018-07-19T07:55:23.563Z,1.00
2018-07-19T07:57:51.027Z,1.00
2018-07-19T08:00:18.488Z,1.00
2018-07-19T08:02:46.069Z,1.00
2018-07-19T08:05:17.641Z,1.00
2018-07-19T08:07:45.156Z,1.00
2018-07-19T08:10:12.636Z,1.00
2018-07-19T08:12:40.254Z,1.00
2018-07-19T08:15:07.735Z,1.00
2018-07-19T08:17:38.085Z,1.00
2018-07-19T08:20:05.697Z,1.00
2018-07-19T08:22:33.074Z,1.00
2018-07-19T08:25:00.643Z,1.00
2018-07-19T08:27:28.030Z,1.00
2018-07-19T08:30:00.160Z,1.00
2018-07-19T08:32:27.613Z,1.00
2018-07-19T08:34:55.760Z,1.00
2018-07-19T08:37:23.146Z,1.00
2018-07-19T08:39:50.594Z,1.00
2018-07-19T08:42:22.737Z,1.00
2018-07-19T08:44:50.313Z,1.00
2018-07-19T08:47:17.742Z,1.00
2018-07-19T08:49:46.482Z,1.00
2018-07-19T08:52:14.076Z,1.00
2018-07-19T08:54:46.366Z,1.00
2018-07-19T08:57:14.264Z,1.00
2018-07-19T08:59:41.627Z,1.00
2018-07-19T09:02:09.253Z,1.00
2018-07-19T09:04:36.610Z,1.00
2018-07-19T09:07:04.029Z,1.00
2018-07-19T09:09:33.282Z,1.00
2018-07-19T09:12:00.685Z,1.00
2018-07-19T09:14:28.085Z,1.00
2018-07-19T09:16:55.540Z,1.00
2018-07-19T09:19:22.921Z,1.00
2018-07-19T09:21:55.274Z,1.00
2018-07-19T09:24:22.590Z,1.00
2018-07-19T09:26:49.950Z,1.00
2018-07-19T09:29:17.527Z,1.00
2018-07-19T09:31:44.953Z,1.00
2018-07-19T09:34:12.277Z,1.00
2018-07-19T09:36:41.429Z,1.00
2018-07-19T09:39:10.633Z,1.00
2018-07-19T09:41:38.003Z,1.00
2018-07-19T09:44:05.422Z,1.00
2018-07-19T09:46:32.751Z,1.00
2018-07-19T09:49:00.223Z,1.00
2018-07-19T09:51:29.382Z,1.00
2018-07-19T09:53:56.739Z,1.00
2018-07-19T09:56:24.447Z,1.00
2018-07-19T09:58:51.910Z,1.00
2018-07-19T10:01:20.344Z,1.00
2018-07-19T10:03:49.146Z,1.00
2018-07-19T10:06:21.355Z,1.00
2018-07-19T10:08:48.841Z,1.00
2018-07-19T10:11:16.231Z,1.00
2018-07-19T10:13:44.021Z,1.00
2018-07-19T10:16:11.357Z,1.00
2018-07-19T10:18:43.766Z,1.00
2018-07-19T10:21:11.146Z,1.00
2018-07-19T10:23:38.584Z,1.00
2018-07-19T10:26:06.027Z,1.00
2018-07-19T10:28:33.512Z,1.00
2018-07-19T10:31:00.842Z,1.00
2018-07-19T10:33:30.356Z,1.00
2018-07-19T10:35:57.819Z,1.00
2018-07-19T10:38:25.244Z,1.00
2018-07-19T10:40:52.913Z,1.00
2018-07-19T10:43:20.391Z,1.00
2018-07-19T10:50:48.315Z,1.00
2018-07-19T10:53:15.778Z,1.00
2018-07-19T10:55:43.201Z,1.00
2018-07-19T10:58:10.765Z,1.00
2018-07-19T11:00:49.592Z,1.00
2018-07-19T11:03:17.422Z,1.00
2018-07-19T11:05:44.769Z,1.00
2018-07-19T11:08:12.130Z,1.00
2018-07-19T11:10:48.526Z,1.00
2018-07-19T11:13:16.154Z,1.00
2018-07-19T11:15:43.741Z,1.00
2018-07-19T11:18:11.310Z,1.00
2018-07-19T11:20:39.137Z,1.00
2018-07-19T11:23:10.646Z,1.00
2018-07-19T11:25:38.198Z,1.00
2018-07-19T11:28:06.221Z,1.00
2018-07-19T11:30:33.690Z,1.00
2018-07-19T11:33:01.129Z,1.00
2018-07-19T11:35:32.741Z,1.00
2018-07-19T11:38:00.314Z,1.00
2018-07-19T11:40:29.083Z,1.00
2018-07-19T11:42:56.629Z,1.00
2018-07-19T11:45:24.153Z,1.00
2018-07-19T11:47:51.771Z,1.00
2018-07-19T11:50:21.731Z,1.00
2018-07-19T11:52:49.290Z,1.00
2018-07-19T11:55:16.877Z,1.00
2018-07-19T11:57:44.493Z,1.00
2018-07-19T12:00:12.304Z,1.00
2018-07-19T12:02:39.956Z,1.00
2018-07-19T12:05:07.533Z,1.00
2018-07-19T12:07:35.183Z,1.00
2018-07-19T12:10:03.737Z,1.00
2018-07-19T12:12:31.386Z,1.00
2018-07-19T12:14:59.235Z,1.00
2018-07-19T12:17:27.306Z,1.00
2018-07-19T12:19:54.898Z,1.00
2018-07-19T12:22:22.464Z,1.00
2018-07-19T12:24:50.061Z,1.00
2018-07-19T12:27:17.827Z,1.00
2018-07-19T12:29:45.487Z,1.00
2018-07-19T12:32:13.092Z,1.00
2018-07-19T12:34:40.755Z,1.00
2018-07-19T12:37:12.123Z,1.00
2018-07-19T12:39:39.724Z,1.00
2018-07-19T12:42:07.334Z,1.00
2018-07-19T12:44:35.202Z,1.00
2018-07-19T12:47:02.815Z,1.00
2018-07-19T12:52:03.997Z,1.00
2018-07-19T12:54:31.561Z,1.00
2018-07-19T12:56:59.272Z,1.00
2018-07-19T12:59:26.999Z,1.00
2018-07-19T13:01:54.615Z,1.00
2018-07-19T13:04:26.333Z,1.00
2018-07-19T13:06:53.934Z,1.00
2018-07-19T13:09:21.639Z,1.00
2018-07-19T13:11:49.226Z,1.00
2018-07-19T13:14:16.984Z,1.00
2018-07-19T13:16:44.574Z,1.00
2018-07-19T13:19:16.571Z,1.00
2018-07-19T13:21:44.142Z,1.00
2018-07-19T13:24:11.820Z,1.00
2018-07-19T13:26:39.978Z,1.00
2018-07-19T13:29:07.546Z,1.00
2018-07-19T13:31:35.153Z,1.00
2018-07-19T13:34:07.462Z,1.00
2018-07-19T13:36:35.168Z,1.00
2018-07-19T13:39:02.826Z,1.00
2018-07-19T13:41:30.393Z,1.00
2018-07-19T13:43:57.923Z,1.00
2018-07-19T13:46:25.582Z,1.00
2018-07-19T13:48:58.234Z,1.00
2018-07-19T13:51:25.886Z,1.00
2018-07-19T13:54:18.107Z,1.00
2018-07-19T13:56:45.734Z,1.00
2018-07-19T13:59:13.997Z,1.00
2018-07-19T14:04:09.841Z,1.00
2018-07-19T14:06:37.605Z,1.00
2018-07-19T14:09:11.706Z,1.00
2018-07-19T14:11:39.327Z,1.00
2018-07-19T14:14:06.941Z,1.00
2018-07-19T14:16:34.500Z,1.00
2018-07-19T14:19:02.105Z,1.00
2018-07-19T14:21:29.711Z,1.00
2018-07-19T14:23:58.918Z,1.00
2018-07-19T14:26:26.543Z,1.00
2018-07-19T14:28:54.202Z,1.00
2018-07-19T14:31:21.823Z,1.00
2018-07-19T14:33:49.415Z,1.00
2018-07-19T14:36:16.963Z,1.00
2018-07-19T14:38:49.493Z,1.00
2018-07-19T14:41:17.061Z,1.00
2018-07-19T14:43:44.654Z,1.00
2018-07-19T14:46:12.253Z,1.00
2018-07-19T14:48:39.796Z,1.00
2018-07-19T14:51:07.984Z,1.00
2018-07-19T14:53:41.149Z,1.00
2018-07-19T14:56:09.370Z,1.00
2018-07-19T14:58:36.813Z,1.00
2018-07-19T15:01:05.522Z,1.00
2018-07-19T15:03:32.920Z,1.00
2018-07-19T15:06:00.582Z,1.00
2018-07-19T15:08:28.019Z,1.00
2018-07-19T15:10:55.412Z,1.00
2018-07-19T15:13:22.854Z,1.00
2018-07-19T15:15:53.162Z,1.00
2018-07-19T15:18:20.558Z,1.00
2018-07-19T15:20:50.313Z,1.00
2018-07-19T15:23:17.726Z,1.00
2018-07-19T15:25:45.223Z,1.00
2018-07-19T15:28:12.609Z,1.00
2018-07-19T15:30:40.046Z,1.00
2018-07-19T15:33:07.708Z,1.00
2018-07-19T15:35:35.114Z,1.00
2018-07-19T15:38:06.109Z,1.00
2018-07-19T15:40:33.513Z,1.00
2018-07-19T15:43:00.914Z,1.00
2018-07-19T15:45:28.418Z,1.00
2018-07-19T15:47:55.827Z,1.00
2018-07-19T15:50:29.624Z,1.00
2018-07-19T15:52:57.091Z,1.00
2018-07-19T15:55:24.563Z,1.00
2018-07-19T15:57:51.919Z,1.00
2018-07-19T16:00:19.359Z,1.00
2018-07-19T16:02:46.799Z,1.00
2018-07-19T16:05:16.138Z,1.00
2018-07-19T16:10:10.906Z,1.00
2018-07-19T16:12:38.360Z,1.00
2018-07-19T16:15:05.806Z,1.00
2018-07-19T16:17:38.192Z,1.00
2018-07-19T16:20:05.661Z,1.00
2018-07-19T16:22:33.089Z,1.00
2018-07-19T16:25:00.545Z,1.00
2018-07-19T16:27:27.956Z,1.00
2018-07-19T16:30:00.891Z,1.00
2018-07-19T16:32:28.281Z,1.00
2018-07-19T16:34:55.891Z,1.00
2018-07-19T16:37:23.388Z,1.00
2018-07-19T16:42:18.183Z,1.00
2018-07-19T16:44:49.506Z,1.00
2018-07-19T16:47:17.010Z,1.00
2018-07-19T16:49:44.409Z,1.00
2018-07-19T16:52:11.839Z,1.00
2018-07-19T16:54:39.271Z,1.00
2018-07-19T16:57:06.782Z,1.00
2018-07-19T16:59:37.156Z,1.00
2018-07-19T17:02:04.542Z,1.00
2018-07-19T17:04:31.971Z,1.00
2018-07-19T17:06:59.442Z,1.00
2018-07-19T17:09:26.846Z,1.00
2018-07-19T17:11:58.718Z,1.00
2018-07-19T17:14:26.069Z,1.00
2018-07-19T17:16:53.676Z,1.00
2018-07-19T17:19:21.036Z,1.00
2018-07-19T17:21:48.559Z,1.00
2018-07-19T17:24:15.985Z,1.00
2018-07-19T17:26:43.351Z,1.00
2018-07-19T17:29:10.726Z,1.00
2018-07-19T17:31:38.223Z,1.00
2018-07-19T17:34:05.719Z,1.00
2018-07-19T17:36:33.140Z,1.00
2018-07-19T17:39:00.564Z,1.00
2018-07-19T17:41:28.035Z,1.00
2018-07-19T17:43:55.495Z,1.00
2018-07-19T17:46:22.906Z,1.00
2018-07-19T17:48:50.398Z,1.00
2018-07-19T17:51:17.793Z,1.00
2018-07-19T17:53:45.186Z,1.00
2018-07-19T17:56:12.583Z,1.00
2018-07-19T17:58:39.930Z,1.00
2018-07-19T18:01:07.622Z,1.00
2018-07-19T18:03:35.747Z,1.00
2018-07-19T18:06:03.176Z,1.00
2018-07-19T18:08:30.563Z,1.00
2018-07-19T18:10:58.022Z,1.00
2018-07-19T18:13:25.337Z,1.00
2018-07-19T18:15:52.786Z,1.00
2018-07-19T18:18:20.360Z,1.00
2018-07-19T18:20:47.786Z,1.00
2018-07-19T18:23:15.258Z,1.00
2018-07-19T18:25:42.794Z,1.00
2018-07-19T18:28:10.382Z,1.00
2018-07-19T18:30:37.895Z,1.00
2018-07-19T18:33:05.388Z,1.00
2018-07-19T18:35:32.838Z,1.00
2018-07-19T18:38:00.309Z,1.00
2018-07-19T18:40:27.714Z,1.00
2018-07-19T18:42:55.234Z,1.00
2018-07-19T18:45:22.596Z,1.00
2018-07-19T18:47:49.998Z,1.00
2018-07-19T18:50:17.477Z,1.00
2018-07-19T18:52:45.592Z,1.00
2018-07-19T18:55:13.019Z,1.00
2018-07-19T18:57:40.589Z,1.00
2018-07-19T19:00:08.088Z,1.00
2018-07-19T19:02:35.558Z,1.00
2018-07-19T19:05:03.172Z,1.00
2018-07-19T19:07:30.720Z,1.00
2018-07-19T19:09:58.142Z,1.00
2018-07-19T19:12:25.619Z,1.00
2018-07-19T19:14:53.078Z,1.00
2018-07-19T19:17:20.563Z,1.00
2018-07-19T19:19:47.994Z,1.00
2018-07-19T19:22:15.382Z,1.00
2018-07-19T19:24:42.795Z,1.00
2018-07-19T19:27:10.216Z,1.00
2018-07-19T19:29:37.701Z,1.00
2018-07-19T19:32:05.291Z,1.00
2018-07-19T19:34:34.911Z,1.00
2018-07-19T19:37:02.358Z,1.00
2018-07-19T19:39:29.730Z,1.00
2018-07-19T19:41:57.434Z,1.00
2018-07-19T19:44:24.848Z,1.00
2018-07-19T19:46:52.257Z,1.00
2018-07-19T19:49:19.695Z,1.00
2018-07-19T19:51:52.042Z,1.00
2018-07-19T19:54:19.560Z,1.00
2018-07-19T19:56:47.002Z,1.00
2018-07-19T19:59:14.986Z,1.00
2018-07-19T20:01:42.531Z,1.00
2018-07-19T20:04:10.128Z,1.00
2018-07-19T20:06:38.464Z,1.00
2018-07-19T20:09:07.502Z,1.00
2018-07-19T20:11:35.013Z,1.00
2018-07-19T20:14:02.590Z,1.00
2018-07-19T20:16:30.066Z,1.00
2018-07-19T20:19:00.283Z,1.00
2018-07-19T20:21:27.873Z,1.00
2018-07-19T20:23:58.661Z,1.00
2018-07-19T20:26:26.139Z,1.00
2018-07-19T20:28:53.605Z,1.00
2018-07-19T20:31:21.245Z,1.00
2018-07-19T20:33:48.910Z,1.00
2018-07-19T20:36:16.451Z,1.00
2018-07-19T20:38:44.250Z,1.00
2018-07-19T20:41:12.608Z,1.00
2018-07-19T20:43:39.984Z,1.00
2018-07-19T20:46:07.715Z,1.00
2018-07-19T20:48:35.108Z,1.00
2018-07-19T20:51:02.642Z,1.00
2018-07-19T20:53:30.114Z,1.00
2018-07-19T20:55:57.606Z,1.00
2018-07-19T20:58:25.031Z,1.00
2018-07-19T21:00:52.426Z,1.00
2018-07-19T21:03:19.870Z,1.00
2018-07-19T21:05:49.570Z,1.00
2018-07-19T21:08:16.996Z,1.00
2018-07-19T21:10:45.197Z,1.00
2018-07-19T21:13:12.638Z,1.00
2018-07-19T21:15:40.110Z,1.00
2018-07-19T21:18:07.854Z,1.00
2018-07-19T21:20:35.187Z,1.00
2018-07-19T21:23:02.698Z,1.00
2018-07-19T21:25:30.241Z,1.00
2018-07-19T21:27:57.766Z,1.00
2018-07-19T21:30:25.223Z,1.00
2018-07-19T21:32:56.678Z,1.00
2018-07-19T21:35:24.340Z,1.00
2018-07-19T21:37:51.729Z,1.00
2018-07-19T21:40:19.168Z,1.00
2018-07-19T21:42:47.378Z,1.00
2018-07-19T21:45:14.835Z,1.00
2018-07-19T21:47:44.442Z,1.00
2018-07-19T21:50:11.890Z,1.00
2018-07-19T21:52:41.465Z,1.00
2018-07-19T21:55:08.934Z,1.00
2018-07-19T22:00:06.115Z,1.00
2018-07-19T22:02:33.690Z,1.00
2018-07-19T22:05:01.385Z,1.00
2018-07-19T22:07:29.886Z,1.00
2018-07-19T22:09:57.453Z,1.00
2018-07-19T22:12:24.819Z,1.00
2018-07-19T22:14:52.194Z,1.00
2018-07-19T22:17:19.579Z,1.00
2018-07-19T22:19:47.095Z,1.00
2018-07-19T22:22:14.538Z,1.00
2018-07-19T22:24:42.008Z,1.00
2018-07-19T22:27:09.582Z,1.00
2018-07-19T22:29:37.017Z,1.00
2018-07-19T22:32:04.659Z,1.00
2018-07-19T22:34:32.116Z,1.00
2018-07-19T22:36:59.562Z,1.00
2018-07-19T22:39:28.780Z,1.00
2018-07-19T22:41:56.195Z,1.00
2018-07-19T22:44:26.711Z,1.00
2018-07-19T22:46:55.134Z,1.00
2018-07-19T22:49:22.866Z,1.00
2018-07-19T22:51:50.281Z,1.00
2018-07-19T22:54:17.680Z,1.00
2018-07-19T22:56:45.095Z,1.00
2018-07-19T22:59:12.499Z,1.00
2018-07-19T23:01:39.945Z,1.00
2018-07-19T23:04:07.347Z,1.00
2018-07-19T23:06:34.759Z,1.00
2018-07-19T23:09:02.218Z,1.00
2018-07-19T23:11:29.622Z,1.00
2018-07-19T23:19:47.069Z,1.00
2018-07-19T23:22:14.661Z,1.00
2018-07-19T23:24:42.731Z,1.00
2018-07-19T23:27:10.358Z,1.00
2018-07-19T23:29:37.974Z,1.00
2018-07-19T23:32:05.890Z,1.00
2018-07-19T23:34:33.764Z,1.00
2018-07-19T23:37:06.313Z,1.00
2018-07-19T23:39:40.353Z,1.00
2018-07-19T23:42:14.552Z,1.00
2018-07-19T23:45:02.053Z,1.00
2018-07-19T23:47:35.132Z,1.00
2018-07-19T23:50:02.785Z,1.00
2018-07-19T23:52:30.488Z,1.00
2018-07-19T23:54:58.116Z,1.00
2018-07-19T23:57:25.691Z,1.00
2018-07-19T23:59:54.309Z,1.00
